sensor_id;sensor_type;location;lat;lon;timestamp;temperature;humidity
52451;DHT22;38366;53.176;6.540;2023-03-23T00:01:24;10.40;99.90
52451;DHT22;38366;53.176;6.540;2023-03-23T00:03:53;10.40;99.90
52451;DHT22;38366;53.176;6.540;2023-03-23T00:06:23;10.40;99.90
52451;DHT22;38366;53.176;6.540;2023-03-23T00:08:50;10.50;99.90
52451;DHT22;38366;53.176;6.540;2023-03-23T00:11:23;10.60;99.90
52451;DHT22;38366;53.176;6.540;2023-03-23T00:13:50;10.70;99.90
52451;DHT22;38366;53.176;6.540;2023-03-23T00:16:18;10.70;99.90
52451;DHT22;38366;53.176;6.540;2023-03-23T00:18:48;10.90;99.90
52451;DHT22;38366;53.176;6.540;2023-03-23T00:21:18;10.80;99.90
52451;DHT22;38366;53.176;6.540;2023-03-23T00:23:44;10.80;99.90
52451;DHT22;38366;53.176;6.540;2023-03-23T00:26:10;10.80;99.90
52451;DHT22;38366;53.176;6.540;2023-03-23T00:28:36;10.70;99.90
52451;DHT22;38366;53.176;6.540;2023-03-23T00:31:06;10.70;99.90
52451;DHT22;38366;53.176;6.540;2023-03-23T00:33:35;10.60;99.90
52451;DHT22;38366;53.176;6.540;2023-03-23T00:36:04;10.60;99.90
52451;DHT22;38366;53.176;6.540;2023-03-23T00:38:31;10.60;99.90
52451;DHT22;38366;53.176;6.540;2023-03-23T00:40:56;10.60;99.90
52451;DHT22;38366;53.176;6.540;2023-03-23T00:43:23;10.60;99.90
52451;DHT22;38366;53.176;6.540;2023-03-23T00:45:50;10.60;99.90
52451;DHT22;38366;53.176;6.540;2023-03-23T00:48:20;10.70;99.90
52451;DHT22;38366;53.176;6.540;2023-03-23T00:50:46;10.80;99.90
52451;DHT22;38366;53.176;6.540;2023-03-23T00:53:13;10.90;99.90
52451;DHT22;38366;53.176;6.540;2023-03-23T00:55:41;11.00;99.90
52451;DHT22;38366;53.176;6.540;2023-03-23T00:58:08;11.00;99.90
52451;DHT22;38366;53.176;6.540;2023-03-23T01:00:33;11.00;99.90
52451;DHT22;38366;53.176;6.540;2023-03-23T01:02:59;10.90;99.90
52451;DHT22;38366;53.176;6.540;2023-03-23T01:05:25;10.70;99.90
52451;DHT22;38366;53.176;6.540;2023-03-23T01:08:00;10.40;99.90
52451;DHT22;38366;53.176;6.540;2023-03-23T01:10:27;10.30;99.90
52451;DHT22;38366;53.176;6.540;2023-03-23T01:12:53;10.30;99.90
52451;DHT22;38366;53.176;6.540;2023-03-23T01:15:20;10.30;99.90
52451;DHT22;38366;53.176;6.540;2023-03-23T01:17:46;10.20;99.90
52451;DHT22;38366;53.176;6.540;2023-03-23T01:20:13;10.30;99.90
52451;DHT22;38366;53.176;6.540;2023-03-23T01:22:41;10.30;99.90
52451;DHT22;38366;53.176;6.540;2023-03-23T01:25:08;10.40;99.90
52451;DHT22;38366;53.176;6.540;2023-03-23T01:27:35;10.30;99.90
52451;DHT22;38366;53.176;6.540;2023-03-23T01:30:01;10.40;99.90
52451;DHT22;38366;53.176;6.540;2023-03-23T01:32:26;10.30;99.90
52451;DHT22;38366;53.176;6.540;2023-03-23T01:34:52;10.30;99.90
52451;DHT22;38366;53.176;6.540;2023-03-23T01:37:18;10.30;99.90
52451;DHT22;38366;53.176;6.540;2023-03-23T01:39:45;10.30;99.90
52451;DHT22;38366;53.176;6.540;2023-03-23T01:42:11;10.40;99.90
52451;DHT22;38366;53.176;6.540;2023-03-23T01:47:03;10.50;99.90
52451;DHT22;38366;53.176;6.540;2023-03-23T01:49:36;10.50;99.90
52451;DHT22;38366;53.176;6.540;2023-03-23T01:52:12;10.60;99.90
52451;DHT22;38366;53.176;6.540;2023-03-23T01:54:43;10.70;99.90
52451;DHT22;38366;53.176;6.540;2023-03-23T01:57:15;10.70;99.90
52451;DHT22;38366;53.176;6.540;2023-03-23T01:59:44;10.80;99.90
52451;DHT22;38366;53.176;6.540;2023-03-23T02:02:11;10.70;99.90
52451;DHT22;38366;53.176;6.540;2023-03-23T02:04:38;10.80;99.90
52451;DHT22;38366;53.176;6.540;2023-03-23T02:07:04;10.80;99.90
52451;DHT22;38366;53.176;6.540;2023-03-23T02:09:31;10.80;99.90
52451;DHT22;38366;53.176;6.540;2023-03-23T02:11:57;10.80;99.90
52451;DHT22;38366;53.176;6.540;2023-03-23T02:14:24;10.80;99.90
52451;DHT22;38366;53.176;6.540;2023-03-23T02:19:54;10.80;99.90
52451;DHT22;38366;53.176;6.540;2023-03-23T02:28:48;10.80;99.90
52451;DHT22;38366;53.176;6.540;2023-03-23T02:31:47;10.80;99.90
52451;DHT22;38366;53.176;6.540;2023-03-23T02:34:27;10.90;99.90
52451;DHT22;38366;53.176;6.540;2023-03-23T02:37:01;10.90;99.90
52451;DHT22;38366;53.176;6.540;2023-03-23T02:39:37;10.90;99.90
52451;DHT22;38366;53.176;6.540;2023-03-23T02:42:08;10.80;99.90
52451;DHT22;38366;53.176;6.540;2023-03-23T02:44:41;10.80;99.90
52451;DHT22;38366;53.176;6.540;2023-03-23T02:47:12;10.90;99.90
52451;DHT22;38366;53.176;6.540;2023-03-23T02:49:41;10.90;99.90
52451;DHT22;38366;53.176;6.540;2023-03-23T02:52:11;10.90;99.90
52451;DHT22;38366;53.176;6.540;2023-03-23T02:54:42;10.80;99.90
52451;DHT22;38366;53.176;6.540;2023-03-23T02:57:08;10.80;99.90
52451;DHT22;38366;53.176;6.540;2023-03-23T02:59:35;10.80;99.90
52451;DHT22;38366;53.176;6.540;2023-03-23T03:02:07;10.80;99.90
52451;DHT22;38366;53.176;6.540;2023-03-23T03:04:36;10.80;99.90
52451;DHT22;38366;53.176;6.540;2023-03-23T03:07:32;10.80;99.90
52451;DHT22;38366;53.176;6.540;2023-03-23T03:10:09;10.80;99.90
52451;DHT22;38366;53.176;6.540;2023-03-23T03:15:45;11.00;99.90
52451;DHT22;38366;53.176;6.540;2023-03-23T03:18:18;11.00;99.90
52451;DHT22;38366;53.176;6.540;2023-03-23T03:20:51;10.90;99.90
52451;DHT22;38366;53.176;6.540;2023-03-23T03:23:20;10.90;99.90
52451;DHT22;38366;53.176;6.540;2023-03-23T03:25:47;10.80;99.90
52451;DHT22;38366;53.176;6.540;2023-03-23T03:28:19;10.80;99.90
52451;DHT22;38366;53.176;6.540;2023-03-23T03:30:56;10.80;99.90
52451;DHT22;38366;53.176;6.540;2023-03-23T03:33:24;10.80;99.90
52451;DHT22;38366;53.176;6.540;2023-03-23T03:35:57;10.80;99.90
52451;DHT22;38366;53.176;6.540;2023-03-23T03:38:26;10.90;99.90
52451;DHT22;38366;53.176;6.540;2023-03-23T03:40:52;10.80;99.90
52451;DHT22;38366;53.176;6.540;2023-03-23T03:43:18;10.80;99.90
52451;DHT22;38366;53.176;6.540;2023-03-23T03:45:44;10.90;99.90
52451;DHT22;38366;53.176;6.540;2023-03-23T03:48:10;10.80;99.90
52451;DHT22;38366;53.176;6.540;2023-03-23T03:50:36;10.80;99.90
52451;DHT22;38366;53.176;6.540;2023-03-23T03:53:02;10.80;99.90
52451;DHT22;38366;53.176;6.540;2023-03-23T03:55:28;10.90;99.90
52451;DHT22;38366;53.176;6.540;2023-03-23T03:57:54;10.90;99.90
52451;DHT22;38366;53.176;6.540;2023-03-23T04:00:20;10.90;99.90
52451;DHT22;38366;53.176;6.540;2023-03-23T04:02:49;10.80;99.90
52451;DHT22;38366;53.176;6.540;2023-03-23T04:05:19;10.70;99.90
52451;DHT22;38366;53.176;6.540;2023-03-23T04:07:45;10.60;99.90
52451;DHT22;38366;53.176;6.540;2023-03-23T04:10:15;10.70;99.90
52451;DHT22;38366;53.176;6.540;2023-03-23T04:12:40;10.70;99.90
52451;DHT22;38366;53.176;6.540;2023-03-23T04:15:06;10.50;99.90
52451;DHT22;38366;53.176;6.540;2023-03-23T04:17:33;10.30;99.90
52451;DHT22;38366;53.176;6.540;2023-03-23T04:19:59;10.20;99.90
52451;DHT22;38366;53.176;6.540;2023-03-23T04:22:26;10.10;99.90
52451;DHT22;38366;53.176;6.540;2023-03-23T04:24:59;9.80;99.90
52451;DHT22;38366;53.176;6.540;2023-03-23T04:27:27;9.70;99.90
52451;DHT22;38366;53.176;6.540;2023-03-23T04:29:55;9.60;99.90
52451;DHT22;38366;53.176;6.540;2023-03-23T04:32:21;9.60;99.90
52451;DHT22;38366;53.176;6.540;2023-03-23T04:34:47;9.60;99.90
52451;DHT22;38366;53.176;6.540;2023-03-23T04:37:14;9.50;99.90
52451;DHT22;38366;53.176;6.540;2023-03-23T04:39:40;9.50;99.90
52451;DHT22;38366;53.176;6.540;2023-03-23T04:42:06;9.50;99.90
52451;DHT22;38366;53.176;6.540;2023-03-23T04:44:32;9.60;99.90
52451;DHT22;38366;53.176;6.540;2023-03-23T04:47:00;9.70;99.90
52451;DHT22;38366;53.176;6.540;2023-03-23T04:49:26;9.70;99.90
52451;DHT22;38366;53.176;6.540;2023-03-23T04:51:52;9.70;99.90
52451;DHT22;38366;53.176;6.540;2023-03-23T04:54:18;9.70;99.90
52451;DHT22;38366;53.176;6.540;2023-03-23T04:56:44;9.70;99.90
52451;DHT22;38366;53.176;6.540;2023-03-23T04:59:09;9.60;99.90
52451;DHT22;38366;53.176;6.540;2023-03-23T05:01:36;9.70;99.90
52451;DHT22;38366;53.176;6.540;2023-03-23T05:04:03;9.70;99.90
52451;DHT22;38366;53.176;6.540;2023-03-23T05:06:29;9.70;99.90
52451;DHT22;38366;53.176;6.540;2023-03-23T05:08:55;9.60;99.90
52451;DHT22;38366;53.176;6.540;2023-03-23T05:11:21;9.70;99.90
52451;DHT22;38366;53.176;6.540;2023-03-23T05:13:46;9.70;99.90
52451;DHT22;38366;53.176;6.540;2023-03-23T05:16:31;9.80;99.90
52451;DHT22;38366;53.176;6.540;2023-03-23T05:18:57;9.90;99.90
52451;DHT22;38366;53.176;6.540;2023-03-23T05:21:23;10.00;99.90
52451;DHT22;38366;53.176;6.540;2023-03-23T05:23:48;10.10;99.90
52451;DHT22;38366;53.176;6.540;2023-03-23T05:26:21;10.10;99.90
52451;DHT22;38366;53.176;6.540;2023-03-23T05:28:47;10.00;99.90
52451;DHT22;38366;53.176;6.540;2023-03-23T05:31:13;10.10;99.90
52451;DHT22;38366;53.176;6.540;2023-03-23T05:33:39;10.00;99.90
52451;DHT22;38366;53.176;6.540;2023-03-23T05:36:05;10.00;99.90
52451;DHT22;38366;53.176;6.540;2023-03-23T05:38:36;10.00;99.90
52451;DHT22;38366;53.176;6.540;2023-03-23T05:41:04;10.00;99.90
52451;DHT22;38366;53.176;6.540;2023-03-23T05:43:30;10.00;99.90
52451;DHT22;38366;53.176;6.540;2023-03-23T05:45:56;9.90;99.90
52451;DHT22;38366;53.176;6.540;2023-03-23T05:48:22;9.90;99.90
52451;DHT22;38366;53.176;6.540;2023-03-23T05:50:48;9.90;99.90
52451;DHT22;38366;53.176;6.540;2023-03-23T05:53:13;9.90;99.90
52451;DHT22;38366;53.176;6.540;2023-03-23T05:55:39;9.90;99.90
52451;DHT22;38366;53.176;6.540;2023-03-23T05:58:05;9.80;99.90
52451;DHT22;38366;53.176;6.540;2023-03-23T06:00:31;9.80;99.90
52451;DHT22;38366;53.176;6.540;2023-03-23T06:02:58;9.80;99.90
52451;DHT22;38366;53.176;6.540;2023-03-23T06:05:24;9.90;99.90
52451;DHT22;38366;53.176;6.540;2023-03-23T06:07:51;9.80;99.90
52451;DHT22;38366;53.176;6.540;2023-03-23T06:10:17;9.90;99.90
52451;DHT22;38366;53.176;6.540;2023-03-23T06:12:43;9.80;99.90
52451;DHT22;38366;53.176;6.540;2023-03-23T06:15:10;9.80;99.90
52451;DHT22;38366;53.176;6.540;2023-03-23T06:17:36;9.90;99.90
52451;DHT22;38366;53.176;6.540;2023-03-23T06:20:04;9.90;99.90
52451;DHT22;38366;53.176;6.540;2023-03-23T06:22:36;10.00;99.90
52451;DHT22;38366;53.176;6.540;2023-03-23T06:25:04;10.10;99.90
52451;DHT22;38366;53.176;6.540;2023-03-23T06:27:30;10.10;99.90
52451;DHT22;38366;53.176;6.540;2023-03-23T06:29:56;10.00;99.90
52451;DHT22;38366;53.176;6.540;2023-03-23T06:32:23;10.00;99.90
52451;DHT22;38366;53.176;6.540;2023-03-23T06:34:49;10.00;99.90
52451;DHT22;38366;53.176;6.540;2023-03-23T06:37:15;10.10;99.90
52451;DHT22;38366;53.176;6.540;2023-03-23T06:39:41;10.10;99.90
52451;DHT22;38366;53.176;6.540;2023-03-23T06:42:11;10.00;99.90
52451;DHT22;38366;53.176;6.540;2023-03-23T06:44:37;9.90;99.90
52451;DHT22;38366;53.176;6.540;2023-03-23T06:47:04;9.80;99.90
52451;DHT22;38366;53.176;6.540;2023-03-23T06:49:33;9.70;99.90
52451;DHT22;38366;53.176;6.540;2023-03-23T06:51:59;9.60;99.90
52451;DHT22;38366;53.176;6.540;2023-03-23T06:54:27;9.60;99.90
52451;DHT22;38366;53.176;6.540;2023-03-23T06:56:53;9.50;99.90
52451;DHT22;38366;53.176;6.540;2023-03-23T06:59:19;9.50;99.90
52451;DHT22;38366;53.176;6.540;2023-03-23T07:01:45;9.40;99.90
52451;DHT22;38366;53.176;6.540;2023-03-23T07:04:12;9.40;99.90
52451;DHT22;38366;53.176;6.540;2023-03-23T07:06:38;9.30;99.90
52451;DHT22;38366;53.176;6.540;2023-03-23T07:09:04;9.30;99.90
52451;DHT22;38366;53.176;6.540;2023-03-23T07:11:30;9.30;99.90
52451;DHT22;38366;53.176;6.540;2023-03-23T07:13:55;9.40;99.90
52451;DHT22;38366;53.176;6.540;2023-03-23T07:16:21;9.40;99.90
52451;DHT22;38366;53.176;6.540;2023-03-23T07:18:47;9.40;99.90
52451;DHT22;38366;53.176;6.540;2023-03-23T07:21:13;9.50;99.90
52451;DHT22;38366;53.176;6.540;2023-03-23T07:23:38;9.60;99.90
52451;DHT22;38366;53.176;6.540;2023-03-23T07:26:04;9.70;99.90
52451;DHT22;38366;53.176;6.540;2023-03-23T07:28:30;9.90;99.90
52451;DHT22;38366;53.176;6.540;2023-03-23T07:30:56;10.10;99.90
52451;DHT22;38366;53.176;6.540;2023-03-23T07:33:22;10.30;99.90
52451;DHT22;38366;53.176;6.540;2023-03-23T07:35:48;10.40;99.90
52451;DHT22;38366;53.176;6.540;2023-03-23T07:38:14;10.40;99.90
52451;DHT22;38366;53.176;6.540;2023-03-23T07:40:40;10.40;99.90
52451;DHT22;38366;53.176;6.540;2023-03-23T07:43:06;10.40;99.90
52451;DHT22;38366;53.176;6.540;2023-03-23T07:45:32;10.40;99.90
52451;DHT22;38366;53.176;6.540;2023-03-23T07:47:58;10.50;99.90
52451;DHT22;38366;53.176;6.540;2023-03-23T07:50:25;10.70;99.90
52451;DHT22;38366;53.176;6.540;2023-03-23T07:52:53;10.90;99.90
52451;DHT22;38366;53.176;6.540;2023-03-23T07:55:19;11.10;99.90
52451;DHT22;38366;53.176;6.540;2023-03-23T07:57:46;11.30;99.90
52451;DHT22;38366;53.176;6.540;2023-03-23T08:00:17;11.40;99.90
52451;DHT22;38366;53.176;6.540;2023-03-23T08:02:55;11.40;99.90
52451;DHT22;38366;53.176;6.540;2023-03-23T08:05:23;11.50;99.90
52451;DHT22;38366;53.176;6.540;2023-03-23T08:07:52;11.60;99.90
52451;DHT22;38366;53.176;6.540;2023-03-23T08:10:21;11.50;99.90
52451;DHT22;38366;53.176;6.540;2023-03-23T08:12:54;11.50;99.90
52451;DHT22;38366;53.176;6.540;2023-03-23T08:15:21;11.40;99.90
52451;DHT22;38366;53.176;6.540;2023-03-23T08:17:48;11.50;99.90
52451;DHT22;38366;53.176;6.540;2023-03-23T08:20:14;11.50;99.90
52451;DHT22;38366;53.176;6.540;2023-03-23T08:22:41;11.50;99.90
52451;DHT22;38366;53.176;6.540;2023-03-23T08:25:12;11.50;99.90
52451;DHT22;38366;53.176;6.540;2023-03-23T08:27:38;11.60;99.90
52451;DHT22;38366;53.176;6.540;2023-03-23T08:30:10;11.70;99.90
52451;DHT22;38366;53.176;6.540;2023-03-23T08:32:37;11.80;99.90
52451;DHT22;38366;53.176;6.540;2023-03-23T08:35:03;11.90;99.90
52451;DHT22;38366;53.176;6.540;2023-03-23T08:37:29;11.90;99.90
52451;DHT22;38366;53.176;6.540;2023-03-23T08:39:55;11.80;99.90
52451;DHT22;38366;53.176;6.540;2023-03-23T08:42:23;11.80;99.90
52451;DHT22;38366;53.176;6.540;2023-03-23T08:44:50;11.90;99.90
52451;DHT22;38366;53.176;6.540;2023-03-23T08:47:16;12.10;99.90
52451;DHT22;38366;53.176;6.540;2023-03-23T08:49:43;12.30;99.90
52451;DHT22;38366;53.176;6.540;2023-03-23T08:52:11;12.40;99.90
52451;DHT22;38366;53.176;6.540;2023-03-23T08:54:36;12.90;99.90
52451;DHT22;38366;53.176;6.540;2023-03-23T08:57:03;13.40;99.90
52451;DHT22;38366;53.176;6.540;2023-03-23T08:59:29;13.80;99.90
52451;DHT22;38366;53.176;6.540;2023-03-23T09:01:55;14.10;99.90
52451;DHT22;38366;53.176;6.540;2023-03-23T09:04:21;14.00;99.90
52451;DHT22;38366;53.176;6.540;2023-03-23T09:06:47;14.00;99.90
52451;DHT22;38366;53.176;6.540;2023-03-23T09:09:13;13.80;99.90
52451;DHT22;38366;53.176;6.540;2023-03-23T09:11:39;13.90;99.90
52451;DHT22;38366;53.176;6.540;2023-03-23T09:14:07;14.10;99.90
52451;DHT22;38366;53.176;6.540;2023-03-23T09:16:34;14.50;99.90
52451;DHT22;38366;53.176;6.540;2023-03-23T09:19:00;14.40;99.90
52451;DHT22;38366;53.176;6.540;2023-03-23T09:21:27;14.20;99.90
52451;DHT22;38366;53.176;6.540;2023-03-23T09:23:52;14.10;99.90
52451;DHT22;38366;53.176;6.540;2023-03-23T09:26:18;14.20;99.90
52451;DHT22;38366;53.176;6.540;2023-03-23T09:28:45;14.30;99.90
52451;DHT22;38366;53.176;6.540;2023-03-23T09:31:11;14.30;99.90
52451;DHT22;38366;53.176;6.540;2023-03-23T09:33:37;14.20;99.90
52451;DHT22;38366;53.176;6.540;2023-03-23T09:36:04;14.10;99.90
52451;DHT22;38366;53.176;6.540;2023-03-23T09:38:31;14.60;99.90
52451;DHT22;38366;53.176;6.540;2023-03-23T09:41:25;15.20;99.90
52451;DHT22;38366;53.176;6.540;2023-03-23T09:43:59;16.00;99.90
52451;DHT22;38366;53.176;6.540;2023-03-23T09:46:48;16.40;99.90
52451;DHT22;38366;53.176;6.540;2023-03-23T09:49:57;16.60;99.90
52451;DHT22;38366;53.176;6.540;2023-03-23T09:55:15;17.50;99.90
52451;DHT22;38366;53.176;6.540;2023-03-23T09:57:58;17.40;99.90
52451;DHT22;38366;53.176;6.540;2023-03-23T10:00:40;17.50;99.90
52451;DHT22;38366;53.176;6.540;2023-03-23T10:03:22;17.50;99.90
52451;DHT22;38366;53.176;6.540;2023-03-23T10:05:52;17.90;99.90
52451;DHT22;38366;53.176;6.540;2023-03-23T10:08:27;18.10;99.90
52451;DHT22;38366;53.176;6.540;2023-03-23T10:11:06;18.30;99.90
52451;DHT22;38366;53.176;6.540;2023-03-23T10:16:27;18.70;99.90
52451;DHT22;38366;53.176;6.540;2023-03-23T10:21:24;18.90;99.90
52451;DHT22;38366;53.176;6.540;2023-03-23T10:23:56;19.00;99.90
52451;DHT22;38366;53.176;6.540;2023-03-23T10:26:38;18.70;99.90
52451;DHT22;38366;53.176;6.540;2023-03-23T10:31:42;18.40;99.90
52451;DHT22;38366;53.176;6.540;2023-03-23T10:34:23;18.20;99.90
52451;DHT22;38366;53.176;6.540;2023-03-23T10:37:09;18.10;99.90
52451;DHT22;38366;53.176;6.540;2023-03-23T10:39:48;18.00;99.90
52451;DHT22;38366;53.176;6.540;2023-03-23T10:44:51;18.60;99.90
52451;DHT22;38366;53.176;6.540;2023-03-23T10:47:17;18.90;99.90
52451;DHT22;38366;53.176;6.540;2023-03-23T10:50:04;19.20;99.90
52451;DHT22;38366;53.176;6.540;2023-03-23T10:52:42;19.10;99.90
52451;DHT22;38366;53.176;6.540;2023-03-23T10:55:18;19.40;99.90
52451;DHT22;38366;53.176;6.540;2023-03-23T10:57:46;19.50;99.90
52451;DHT22;38366;53.176;6.540;2023-03-23T11:00:24;19.40;99.90
52451;DHT22;38366;53.176;6.540;2023-03-23T11:03:52;18.90;99.90
52451;DHT22;38366;53.176;6.540;2023-03-23T11:05:57;18.40;99.90
52451;DHT22;38366;53.176;6.540;2023-03-23T11:08:28;18.30;99.90
52451;DHT22;38366;53.176;6.540;2023-03-23T11:10:59;18.10;99.90
52451;DHT22;38366;53.176;6.540;2023-03-23T11:13:31;18.30;99.90
52451;DHT22;38366;53.176;6.540;2023-03-23T11:15:57;18.90;99.90
52451;DHT22;38366;53.176;6.540;2023-03-23T11:18:36;19.10;99.90
52451;DHT22;38366;53.176;6.540;2023-03-23T11:21:03;19.20;99.90
52451;DHT22;38366;53.176;6.540;2023-03-23T11:23:36;19.80;99.90
52451;DHT22;38366;53.176;6.540;2023-03-23T11:26:21;20.20;99.90
52451;DHT22;38366;53.176;6.540;2023-03-23T11:31:45;20.40;99.90
52451;DHT22;38366;53.176;6.540;2023-03-23T11:34:22;20.20;99.90
52451;DHT22;38366;53.176;6.540;2023-03-23T11:36:55;20.30;99.90
52451;DHT22;38366;53.176;6.540;2023-03-23T11:41:58;19.90;99.90
52451;DHT22;38366;53.176;6.540;2023-03-23T11:44:32;19.80;99.90
52451;DHT22;38366;53.176;6.540;2023-03-23T11:55:03;20.00;99.90
52451;DHT22;38366;53.176;6.540;2023-03-23T11:57:30;19.50;99.90
52451;DHT22;38366;53.176;6.540;2023-03-23T11:59:56;19.30;99.90
52451;DHT22;38366;53.176;6.540;2023-03-23T12:02:56;19.20;99.90
52451;DHT22;38366;53.176;6.540;2023-03-23T12:05:34;19.20;99.90
52451;DHT22;38366;53.176;6.540;2023-03-23T12:08:23;19.00;99.90
52451;DHT22;38366;53.176;6.540;2023-03-23T12:11:05;18.30;99.90
52451;DHT22;38366;53.176;6.540;2023-03-23T12:21:57;19.90;99.90
52451;DHT22;38366;53.176;6.540;2023-03-23T12:42:05;20.00;99.90
52451;DHT22;38366;53.176;6.540;2023-03-23T12:44:47;19.90;99.90
52451;DHT22;38366;53.176;6.540;2023-03-23T12:50:13;18.70;99.90
52451;DHT22;38366;53.176;6.540;2023-03-23T12:55:44;18.10;99.90
52451;DHT22;38366;53.176;6.540;2023-03-23T12:58:12;18.50;99.90
52451;DHT22;38366;53.176;6.540;2023-03-23T13:01:00;18.90;99.90
52451;DHT22;38366;53.176;6.540;2023-03-23T13:03:44;18.70;99.90
52451;DHT22;38366;53.176;6.540;2023-03-23T13:11:29;19.50;99.90
52451;DHT22;38366;53.176;6.540;2023-03-23T13:24:59;17.40;99.90
52451;DHT22;38366;53.176;6.540;2023-03-23T13:27:27;17.00;99.90
52451;DHT22;38366;53.176;6.540;2023-03-23T13:29:57;16.90;99.90
52451;DHT22;38366;53.176;6.540;2023-03-23T13:32:36;16.70;99.90
52451;DHT22;38366;53.176;6.540;2023-03-23T13:35:12;16.80;99.90
52451;DHT22;38366;53.176;6.540;2023-03-23T13:37:45;16.90;99.90
52451;DHT22;38366;53.176;6.540;2023-03-23T13:42:57;17.20;99.90
52451;DHT22;38366;53.176;6.540;2023-03-23T13:48:05;17.10;99.90
52451;DHT22;38366;53.176;6.540;2023-03-23T13:53:46;17.20;99.90
52451;DHT22;38366;53.176;6.540;2023-03-23T13:59:13;17.20;99.90
52451;DHT22;38366;53.176;6.540;2023-03-23T14:01:40;17.20;99.90
52451;DHT22;38366;53.176;6.540;2023-03-23T14:04:17;17.30;99.90
52451;DHT22;38366;53.176;6.540;2023-03-23T14:06:49;17.20;99.90
52451;DHT22;38366;53.176;6.540;2023-03-23T14:11:59;17.10;99.90
52451;DHT22;38366;53.176;6.540;2023-03-23T14:14:33;17.00;99.90
52451;DHT22;38366;53.176;6.540;2023-03-23T14:17:17;16.90;99.90
52451;DHT22;38366;53.176;6.540;2023-03-23T14:19:48;16.80;99.90
52451;DHT22;38366;53.176;6.540;2023-03-23T14:22:23;16.90;99.90
52451;DHT22;38366;53.176;6.540;2023-03-23T14:24:49;16.80;99.90
52451;DHT22;38366;53.176;6.540;2023-03-23T14:27:19;16.80;99.90
52451;DHT22;38366;53.176;6.540;2023-03-23T14:29:45;16.70;99.90
52451;DHT22;38366;53.176;6.540;2023-03-23T14:32:18;16.70;99.90
52451;DHT22;38366;53.176;6.540;2023-03-23T14:34:50;16.70;99.90
52451;DHT22;38366;53.176;6.540;2023-03-23T14:37:16;16.60;99.90
52451;DHT22;38366;53.176;6.540;2023-03-23T14:39:46;16.60;99.90
52451;DHT22;38366;53.176;6.540;2023-03-23T14:42:16;16.40;99.90
52451;DHT22;38366;53.176;6.540;2023-03-23T14:44:47;16.50;99.90
52451;DHT22;38366;53.176;6.540;2023-03-23T14:47:28;16.40;99.90
52451;DHT22;38366;53.176;6.540;2023-03-23T14:49:59;16.40;99.90
52451;DHT22;38366;53.176;6.540;2023-03-23T14:52:32;16.30;99.90
52451;DHT22;38366;53.176;6.540;2023-03-23T14:55:14;16.30;99.90
52451;DHT22;38366;53.176;6.540;2023-03-23T14:57:41;16.10;99.90
52451;DHT22;38366;53.176;6.540;2023-03-23T15:00:30;16.10;99.90
52451;DHT22;38366;53.176;6.540;2023-03-23T15:02:59;16.10;99.90
52451;DHT22;38366;53.176;6.540;2023-03-23T15:05:31;16.10;99.90
52451;DHT22;38366;53.176;6.540;2023-03-23T15:08:10;16.00;99.90
52451;DHT22;38366;53.176;6.540;2023-03-23T15:10:37;16.00;99.90
52451;DHT22;38366;53.176;6.540;2023-03-23T15:13:03;16.00;99.90
52451;DHT22;38366;53.176;6.540;2023-03-23T15:15:33;16.00;99.90
52451;DHT22;38366;53.176;6.540;2023-03-23T15:18:01;16.00;99.90
52451;DHT22;38366;53.176;6.540;2023-03-23T15:23:13;15.90;99.90
52451;DHT22;38366;53.176;6.540;2023-03-23T15:25:51;15.90;99.90
52451;DHT22;38366;53.176;6.540;2023-03-23T15:28:18;16.00;99.90
52451;DHT22;38366;53.176;6.540;2023-03-23T15:31:02;15.80;99.90
52451;DHT22;38366;53.176;6.540;2023-03-23T15:33:34;15.70;99.90
52451;DHT22;38366;53.176;6.540;2023-03-23T15:36:07;15.60;99.90
52451;DHT22;38366;53.176;6.540;2023-03-23T15:38:34;15.60;99.90
52451;DHT22;38366;53.176;6.540;2023-03-23T15:41:17;15.50;99.90
52451;DHT22;38366;53.176;6.540;2023-03-23T15:43:53;15.50;99.90
52451;DHT22;38366;53.176;6.540;2023-03-23T15:46:22;15.50;99.90
52451;DHT22;38366;53.176;6.540;2023-03-23T15:49:01;15.50;99.90
52451;DHT22;38366;53.176;6.540;2023-03-23T15:51:30;15.40;99.90
52451;DHT22;38366;53.176;6.540;2023-03-23T15:53:57;15.40;99.90
52451;DHT22;38366;53.176;6.540;2023-03-23T15:56:24;15.30;99.90
52451;DHT22;38366;53.176;6.540;2023-03-23T15:58:50;15.30;99.90
52451;DHT22;38366;53.176;6.540;2023-03-23T16:01:22;15.30;99.90
52451;DHT22;38366;53.176;6.540;2023-03-23T16:03:57;15.20;99.90
52451;DHT22;38366;53.176;6.540;2023-03-23T16:06:25;15.20;99.90
52451;DHT22;38366;53.176;6.540;2023-03-23T16:08:53;15.20;99.90
52451;DHT22;38366;53.176;6.540;2023-03-23T16:11:18;15.10;99.90
52451;DHT22;38366;53.176;6.540;2023-03-23T16:13:45;14.90;99.90
52451;DHT22;38366;53.176;6.540;2023-03-23T16:16:17;15.00;99.90
52451;DHT22;38366;53.176;6.540;2023-03-23T16:18:43;14.80;99.90
52451;DHT22;38366;53.176;6.540;2023-03-23T16:21:09;14.70;99.90
52451;DHT22;38366;53.176;6.540;2023-03-23T16:23:35;14.60;99.90
52451;DHT22;38366;53.176;6.540;2023-03-23T16:26:01;14.60;99.90
52451;DHT22;38366;53.176;6.540;2023-03-23T16:28:27;14.60;99.90
52451;DHT22;38366;53.176;6.540;2023-03-23T16:30:52;14.50;99.90
52451;DHT22;38366;53.176;6.540;2023-03-23T16:33:18;14.60;99.90
52451;DHT22;38366;53.176;6.540;2023-03-23T16:35:44;14.60;99.90
52451;DHT22;38366;53.176;6.540;2023-03-23T16:38:13;14.50;99.90
52451;DHT22;38366;53.176;6.540;2023-03-23T16:40:44;14.40;99.90
52451;DHT22;38366;53.176;6.540;2023-03-23T16:43:11;14.40;99.90
52451;DHT22;38366;53.176;6.540;2023-03-23T16:45:39;14.50;99.90
52451;DHT22;38366;53.176;6.540;2023-03-23T16:48:07;14.30;99.90
52451;DHT22;38366;53.176;6.540;2023-03-23T16:50:34;14.30;99.90
52451;DHT22;38366;53.176;6.540;2023-03-23T16:53:01;14.20;99.90
52451;DHT22;38366;53.176;6.540;2023-03-23T16:55:28;14.20;99.90
52451;DHT22;38366;53.176;6.540;2023-03-23T16:57:54;14.10;99.90
52451;DHT22;38366;53.176;6.540;2023-03-23T17:00:20;14.10;99.90
52451;DHT22;38366;53.176;6.540;2023-03-23T17:02:50;14.00;99.90
52451;DHT22;38366;53.176;6.540;2023-03-23T17:05:23;14.00;99.90
52451;DHT22;38366;53.176;6.540;2023-03-23T17:07:49;14.00;99.90
52451;DHT22;38366;53.176;6.540;2023-03-23T17:10:16;13.90;99.90
52451;DHT22;38366;53.176;6.540;2023-03-23T17:12:42;13.80;99.90
52451;DHT22;38366;53.176;6.540;2023-03-23T17:15:08;13.80;99.90
52451;DHT22;38366;53.176;6.540;2023-03-23T17:17:35;13.80;99.90
52451;DHT22;38366;53.176;6.540;2023-03-23T17:20:01;13.80;99.90
52451;DHT22;38366;53.176;6.540;2023-03-23T17:22:27;13.80;99.90
52451;DHT22;38366;53.176;6.540;2023-03-23T17:27:58;13.70;99.90
52451;DHT22;38366;53.176;6.540;2023-03-23T17:30:24;13.60;99.90
52451;DHT22;38366;53.176;6.540;2023-03-23T17:32:49;13.50;99.90
52451;DHT22;38366;53.176;6.540;2023-03-23T17:35:15;13.50;99.90
52451;DHT22;38366;53.176;6.540;2023-03-23T17:37:41;13.40;99.90